Avon Heights, Pennsylvania
Current Conditions -  °F | °C
As of 8:58 AM on Tuesday 21 Oct 2014 (Local Time) from KMUI Reporting Station
Overcast Overcast  
Wind Chill: 52°   Ceiling: 1500
Heat Index: 52°   Visibility: 7mi
Dew Point: 52°   Wind: 3mph
Humidity: 100%   Direction: 60°ENE
Pressure: 29.88"   Gusts: NA
Location:  40.2957°N, 76.4189°W
Report Text: KMUI 211258Z AUTO 06003KT 7SM FEW005 OVC015 11/11 A2988 RMK AO2 SLP122 $
Loading
Personal Weather Stations






























Interactive Weather Map
Tropical Storm Tracking
New forecast layout! Learn more

10-Day Weather Forecast

Advertisements
Track Severe Weather on mobile